LFR weather

La Fria Airport
Tachira, Venezuela

Public forecast

Using degrees Celsius for public forecast. Weather courtesy of forecast.io.

Current aviation weather report (METAR) for La Fria Airport

Report is more than 6 hours old.

Retrieved 2017/09/20 18:00 UTC (2 years ago):

SVLF 201800Z 00000KT 9999 SCT040 XX/XX Q1010

Closest aviation forecast (TAF) to La Fria Airport

Closest forecast is Camilo Daza International Airport, 23.5 nm (43.6 km) SW. Retrieved 2019/10/21 06:30 UTC (0 seconds ago):

TAF SKCC 210430Z 2106/2206 VRB02KT 9999 SCT020 SCT090 TEMPO 2108/2112 5000 VCFG RA SCT012 BECMG 2113/2115 35010KT TEMPO 2121/2124 5000 RADZ SCT015CB TX32/2118Z TN23/2111Z